sensor_id;sensor_type;location;lat;lon;timestamp;pressure;altitude;pressure_sealevel;temperature;humidity
46642;BME280;32370;41.864;-88.124;2023-04-10T00:01:38;100054.00;;;15.33;24.60
46642;BME280;32370;41.864;-88.124;2023-04-10T00:04:06;100059.66;;;14.66;25.07
46642;BME280;32370;41.864;-88.124;2023-04-10T00:06:34;100055.98;;;15.38;24.82
46642;BME280;32370;41.864;-88.124;2023-04-10T00:09:02;100057.79;;;15.18;25.10
46642;BME280;32370;41.864;-88.124;2023-04-10T00:11:29;100059.55;;;15.25;25.14
46642;BME280;32370;41.864;-88.124;2023-04-10T00:13:57;100058.86;;;14.33;25.53
46642;BME280;32370;41.864;-88.124;2023-04-10T00:16:26;100058.39;;;14.71;25.94
46642;BME280;32370;41.864;-88.124;2023-04-10T00:18:53;100058.52;;;14.73;25.53
46642;BME280;32370;41.864;-88.124;2023-04-10T00:21:21;100059.15;;;14.58;26.29
46642;BME280;32370;41.864;-88.124;2023-04-10T00:23:49;100058.44;;;13.92;26.29
46642;BME280;32370;41.864;-88.124;2023-04-10T00:26:17;100059.33;;;13.94;26.29
46642;BME280;32370;41.864;-88.124;2023-04-10T00:28:45;100056.64;;;14.37;26.31
46642;BME280;32370;41.864;-88.124;2023-04-10T00:31:13;100054.02;;;14.01;26.68
46642;BME280;32370;41.864;-88.124;2023-04-10T00:33:41;100048.70;;;13.60;27.29
46642;BME280;32370;41.864;-88.124;2023-04-10T00:36:09;100047.08;;;14.10;27.30
46642;BME280;32370;41.864;-88.124;2023-04-10T00:38:36;100045.08;;;13.80;27.53
46642;BME280;32370;41.864;-88.124;2023-04-10T00:41:05;100047.84;;;13.96;26.99
46642;BME280;32370;41.864;-88.124;2023-04-10T00:43:33;100050.40;;;13.44;27.24
46642;BME280;32370;41.864;-88.124;2023-04-10T00:46:01;100049.72;;;13.39;27.89
46642;BME280;32370;41.864;-88.124;2023-04-10T00:48:29;100047.32;;;13.51;27.77
46642;BME280;32370;41.864;-88.124;2023-04-10T00:50:57;100046.25;;;13.18;28.18
46642;BME280;32370;41.864;-88.124;2023-04-10T00:53:25;100047.36;;;13.36;28.58
46642;BME280;32370;41.864;-88.124;2023-04-10T00:55:53;100043.25;;;13.04;28.74
46642;BME280;32370;41.864;-88.124;2023-04-10T00:58:22;100041.53;;;12.96;28.70
46642;BME280;32370;41.864;-88.124;2023-04-10T01:00:50;100042.06;;;13.09;29.08
46642;BME280;32370;41.864;-88.124;2023-04-10T01:03:20;100043.96;;;13.00;28.91
46642;BME280;32370;41.864;-88.124;2023-04-10T01:05:54;100047.28;;;12.82;28.91
46642;BME280;32370;41.864;-88.124;2023-04-10T01:08:34;100047.15;;;12.63;28.91
46642;BME280;32370;41.864;-88.124;2023-04-10T01:11:08;100051.41;;;12.87;28.78
46642;BME280;32370;41.864;-88.124;2023-04-10T01:13:44;100054.19;;;12.54;29.08
46642;BME280;32370;41.864;-88.124;2023-04-10T01:16:19;100054.36;;;12.61;29.31
46642;BME280;32370;41.864;-88.124;2023-04-10T01:18:54;100057.96;;;12.52;29.52
46642;BME280;32370;41.864;-88.124;2023-04-10T01:21:24;100059.19;;;12.77;29.67
46642;BME280;32370;41.864;-88.124;2023-04-10T01:24:05;100060.89;;;12.63;29.88
46642;BME280;32370;41.864;-88.124;2023-04-10T01:26:48;100058.26;;;12.17;30.19
46642;BME280;32370;41.864;-88.124;2023-04-10T01:29:21;100060.28;;;12.48;30.00
46642;BME280;32370;41.864;-88.124;2023-04-10T01:31:53;100059.38;;;12.46;30.47
46642;BME280;32370;41.864;-88.124;2023-04-10T01:34:27;100061.22;;;12.47;30.38
46642;BME280;32370;41.864;-88.124;2023-04-10T01:37:01;100065.82;;;12.18;30.64
46642;BME280;32370;41.864;-88.124;2023-04-10T01:39:30;100066.20;;;12.18;31.16
46642;BME280;32370;41.864;-88.124;2023-04-10T01:42:00;100069.80;;;12.26;31.29
46642;BME280;32370;41.864;-88.124;2023-04-10T01:44:30;100072.32;;;12.08;31.07
46642;BME280;32370;41.864;-88.124;2023-04-10T01:47:00;100070.63;;;12.03;31.00
46642;BME280;32370;41.864;-88.124;2023-04-10T01:49:29;100073.08;;;11.88;31.32
46642;BME280;32370;41.864;-88.124;2023-04-10T01:51:59;100073.63;;;11.94;31.74
46642;BME280;32370;41.864;-88.124;2023-04-10T01:54:29;100073.43;;;11.58;31.58
46642;BME280;32370;41.864;-88.124;2023-04-10T01:56:59;100073.89;;;11.60;31.79
46642;BME280;32370;41.864;-88.124;2023-04-10T01:59:27;100074.48;;;11.71;32.40
46642;BME280;32370;41.864;-88.124;2023-04-10T02:01:56;100074.91;;;11.80;32.47
46642;BME280;32370;41.864;-88.124;2023-04-10T02:04:24;100076.37;;;11.60;32.70
46642;BME280;32370;41.864;-88.124;2023-04-10T02:07:02;100074.83;;;11.61;32.76
46642;BME280;32370;41.864;-88.124;2023-04-10T02:09:41;100078.24;;;11.77;32.74
46642;BME280;32370;41.864;-88.124;2023-04-10T02:12:15;100078.29;;;11.37;32.98
46642;BME280;32370;41.864;-88.124;2023-04-10T02:14:46;100079.33;;;11.37;33.21
46642;BME280;32370;41.864;-88.124;2023-04-10T02:17:19;100077.28;;;11.11;34.01
46642;BME280;32370;41.864;-88.124;2023-04-10T02:19:50;100077.25;;;11.36;34.03
46642;BME280;32370;41.864;-88.124;2023-04-10T02:22:20;100079.91;;;11.65;33.83
46642;BME280;32370;41.864;-88.124;2023-04-10T02:24:48;100078.99;;;11.23;34.26
46642;BME280;32370;41.864;-88.124;2023-04-10T02:27:26;100078.06;;;11.27;34.09
46642;BME280;32370;41.864;-88.124;2023-04-10T02:29:54;100075.46;;;11.35;34.07
46642;BME280;32370;41.864;-88.124;2023-04-10T02:32:22;100075.43;;;11.06;33.87
46642;BME280;32370;41.864;-88.124;2023-04-10T02:34:50;100074.21;;;10.88;35.01
46642;BME280;32370;41.864;-88.124;2023-04-10T02:37:18;100075.55;;;11.48;34.50
46642;BME280;32370;41.864;-88.124;2023-04-10T02:39:46;100078.07;;;10.98;34.82
46642;BME280;32370;41.864;-88.124;2023-04-10T02:42:14;100076.03;;;11.21;34.78
46642;BME280;32370;41.864;-88.124;2023-04-10T02:44:41;100076.38;;;10.91;34.99
46642;BME280;32370;41.864;-88.124;2023-04-10T02:47:09;100076.95;;;11.21;34.73
46642;BME280;32370;41.864;-88.124;2023-04-10T02:49:37;100075.76;;;11.15;35.32
46642;BME280;32370;41.864;-88.124;2023-04-10T02:52:05;100073.34;;;11.21;35.29
46642;BME280;32370;41.864;-88.124;2023-04-10T02:54:32;100074.12;;;11.10;35.17
46642;BME280;32370;41.864;-88.124;2023-04-10T02:57:00;100072.31;;;10.99;35.29
46642;BME280;32370;41.864;-88.124;2023-04-10T02:59:28;100069.40;;;10.78;35.67
46642;BME280;32370;41.864;-88.124;2023-04-10T03:01:56;100070.73;;;11.04;35.88
46642;BME280;32370;41.864;-88.124;2023-04-10T03:04:25;100069.04;;;10.87;35.98
46642;BME280;32370;41.864;-88.124;2023-04-10T03:06:53;100071.02;;;10.37;36.21
46642;BME280;32370;41.864;-88.124;2023-04-10T03:09:20;100069.86;;;10.45;36.09
46642;BME280;32370;41.864;-88.124;2023-04-10T03:11:48;100067.06;;;10.72;36.63
46642;BME280;32370;41.864;-88.124;2023-04-10T03:14:16;100064.65;;;10.56;37.53
46642;BME280;32370;41.864;-88.124;2023-04-10T03:16:44;100062.21;;;11.03;36.86
46642;BME280;32370;41.864;-88.124;2023-04-10T03:19:12;100061.30;;;10.40;37.34
46642;BME280;32370;41.864;-88.124;2023-04-10T03:21:39;100058.42;;;10.44;37.10
46642;BME280;32370;41.864;-88.124;2023-04-10T03:24:07;100056.53;;;10.42;37.21
46642;BME280;32370;41.864;-88.124;2023-04-10T03:26:35;100053.80;;;10.35;37.21
46642;BME280;32370;41.864;-88.124;2023-04-10T03:29:03;100051.11;;;10.19;37.51
46642;BME280;32370;41.864;-88.124;2023-04-10T03:31:31;100053.37;;;10.32;37.61
46642;BME280;32370;41.864;-88.124;2023-04-10T03:33:59;100054.43;;;10.07;37.48
46642;BME280;32370;41.864;-88.124;2023-04-10T03:36:26;100053.66;;;9.95;37.54
46642;BME280;32370;41.864;-88.124;2023-04-10T03:38:54;100054.38;;;10.01;37.58
46642;BME280;32370;41.864;-88.124;2023-04-10T03:41:22;100056.47;;;9.93;37.88
46642;BME280;32370;41.864;-88.124;2023-04-10T03:43:50;100054.34;;;10.02;38.41
46642;BME280;32370;41.864;-88.124;2023-04-10T03:46:18;100060.07;;;10.23;38.01
46642;BME280;32370;41.864;-88.124;2023-04-10T03:48:45;100059.04;;;9.89;38.56
46642;BME280;32370;41.864;-88.124;2023-04-10T03:51:13;100061.25;;;9.76;38.24
46642;BME280;32370;41.864;-88.124;2023-04-10T03:53:41;100060.30;;;10.15;38.28
46642;BME280;32370;41.864;-88.124;2023-04-10T03:56:09;100057.00;;;9.77;38.48
46642;BME280;32370;41.864;-88.124;2023-04-10T03:58:37;100055.68;;;9.56;38.61
46642;BME280;32370;41.864;-88.124;2023-04-10T04:01:05;100055.10;;;9.94;38.77
46642;BME280;32370;41.864;-88.124;2023-04-10T04:03:33;100052.72;;;9.65;39.20
46642;BME280;32370;41.864;-88.124;2023-04-10T04:06:02;100053.45;;;9.82;39.11
46642;BME280;32370;41.864;-88.124;2023-04-10T04:08:30;100049.67;;;9.64;38.90
46642;BME280;32370;41.864;-88.124;2023-04-10T04:10:58;100050.88;;;9.74;39.26
46642;BME280;32370;41.864;-88.124;2023-04-10T04:13:26;100049.43;;;9.64;39.59
46642;BME280;32370;41.864;-88.124;2023-04-10T04:15:53;100049.23;;;9.27;39.78
46642;BME280;32370;41.864;-88.124;2023-04-10T04:18:21;100047.27;;;9.44;40.24
46642;BME280;32370;41.864;-88.124;2023-04-10T04:20:49;100040.24;;;9.34;40.35
46642;BME280;32370;41.864;-88.124;2023-04-10T04:23:17;100038.80;;;9.29;40.96
46642;BME280;32370;41.864;-88.124;2023-04-10T04:25:45;100040.21;;;9.22;40.78
46642;BME280;32370;41.864;-88.124;2023-04-10T04:28:13;100040.48;;;9.13;40.98
46642;BME280;32370;41.864;-88.124;2023-04-10T04:30:40;100039.66;;;9.04;41.46
46642;BME280;32370;41.864;-88.124;2023-04-10T04:33:08;100044.49;;;9.00;41.06
46642;BME280;32370;41.864;-88.124;2023-04-10T04:35:36;100045.10;;;9.16;40.46
46642;BME280;32370;41.864;-88.124;2023-04-10T04:38:04;100044.77;;;9.09;40.52
46642;BME280;32370;41.864;-88.124;2023-04-10T04:40:32;100045.97;;;9.08;40.46
46642;BME280;32370;41.864;-88.124;2023-04-10T04:43:00;100042.97;;;9.30;40.67
46642;BME280;32370;41.864;-88.124;2023-04-10T04:45:28;100041.16;;;9.23;41.00
46642;BME280;32370;41.864;-88.124;2023-04-10T04:47:55;100042.30;;;9.14;41.28
46642;BME280;32370;41.864;-88.124;2023-04-10T04:50:23;100041.85;;;9.06;41.38
46642;BME280;32370;41.864;-88.124;2023-04-10T04:52:51;100041.96;;;8.96;41.85
46642;BME280;32370;41.864;-88.124;2023-04-10T04:55:19;100040.80;;;8.77;42.29
46642;BME280;32370;41.864;-88.124;2023-04-10T04:57:47;100041.13;;;8.89;43.00
46642;BME280;32370;41.864;-88.124;2023-04-10T05:00:15;100043.64;;;8.56;42.70
46642;BME280;32370;41.864;-88.124;2023-04-10T05:02:43;100041.27;;;9.05;42.00
46642;BME280;32370;41.864;-88.124;2023-04-10T05:05:10;100043.54;;;8.64;42.26
46642;BME280;32370;41.864;-88.124;2023-04-10T05:07:39;100042.76;;;8.79;42.56
46642;BME280;32370;41.864;-88.124;2023-04-10T05:10:08;100040.61;;;8.51;42.64
46642;BME280;32370;41.864;-88.124;2023-04-10T05:12:36;100035.35;;;8.54;43.34
46642;BME280;32370;41.864;-88.124;2023-04-10T05:15:05;100033.21;;;8.08;45.03
46642;BME280;32370;41.864;-88.124;2023-04-10T05:17:33;100029.23;;;8.30;44.31
46642;BME280;32370;41.864;-88.124;2023-04-10T05:20:01;100029.14;;;8.03;44.64
46642;BME280;32370;41.864;-88.124;2023-04-10T05:22:29;100027.00;;;7.93;45.02
46642;BME280;32370;41.864;-88.124;2023-04-10T05:24:57;100028.35;;;8.01;45.20
46642;BME280;32370;41.864;-88.124;2023-04-10T05:27:26;100029.19;;;7.95;44.74
46642;BME280;32370;41.864;-88.124;2023-04-10T05:29:54;100029.85;;;7.92;44.69
46642;BME280;32370;41.864;-88.124;2023-04-10T05:32:21;100025.19;;;8.01;44.78
46642;BME280;32370;41.864;-88.124;2023-04-10T05:34:49;100026.56;;;8.09;45.52
46642;BME280;32370;41.864;-88.124;2023-04-10T05:37:17;100025.55;;;8.01;45.61
46642;BME280;32370;41.864;-88.124;2023-04-10T05:39:45;100026.16;;;7.96;46.14
46642;BME280;32370;41.864;-88.124;2023-04-10T05:42:13;100022.37;;;7.60;45.33
46642;BME280;32370;41.864;-88.124;2023-04-10T05:44:41;100024.40;;;7.75;44.64
46642;BME280;32370;41.864;-88.124;2023-04-10T05:47:09;100025.04;;;8.07;45.13
46642;BME280;32370;41.864;-88.124;2023-04-10T05:49:37;100021.25;;;8.21;44.85
46642;BME280;32370;41.864;-88.124;2023-04-10T05:52:05;100017.49;;;7.51;45.11
46642;BME280;32370;41.864;-88.124;2023-04-10T05:54:32;100017.54;;;7.31;45.86
46642;BME280;32370;41.864;-88.124;2023-04-10T05:57:00;100016.33;;;7.60;45.66
46642;BME280;32370;41.864;-88.124;2023-04-10T05:59:28;100015.85;;;7.59;45.94
46642;BME280;32370;41.864;-88.124;2023-04-10T06:01:56;100015.79;;;7.59;45.85
46642;BME280;32370;41.864;-88.124;2023-04-10T06:09:16;100011.86;;;8.54;46.73
46642;BME280;32370;41.864;-88.124;2023-04-10T06:11:44;100012.31;;;7.02;47.18
46642;BME280;32370;41.864;-88.124;2023-04-10T06:14:12;100011.06;;;7.48;46.53
46642;BME280;32370;41.864;-88.124;2023-04-10T06:16:40;100012.58;;;7.50;46.34
46642;BME280;32370;41.864;-88.124;2023-04-10T06:19:08;100012.04;;;7.48;46.72
46642;BME280;32370;41.864;-88.124;2023-04-10T06:21:36;100012.15;;;7.22;47.22
46642;BME280;32370;41.864;-88.124;2023-04-10T06:24:04;100011.95;;;7.32;46.55
46642;BME280;32370;41.864;-88.124;2023-04-10T06:26:32;100010.75;;;7.34;46.45
46642;BME280;32370;41.864;-88.124;2023-04-10T06:28:59;100009.23;;;7.32;46.57
46642;BME280;32370;41.864;-88.124;2023-04-10T06:31:27;100006.50;;;7.42;45.74
46642;BME280;32370;41.864;-88.124;2023-04-10T06:33:55;100004.70;;;7.42;45.76
46642;BME280;32370;41.864;-88.124;2023-04-10T06:36:23;100003.12;;;7.24;45.77
46642;BME280;32370;41.864;-88.124;2023-04-10T06:38:51;100002.35;;;7.49;45.70
46642;BME280;32370;41.864;-88.124;2023-04-10T06:41:19;100002.90;;;7.45;45.82
46642;BME280;32370;41.864;-88.124;2023-04-10T06:43:47;100002.03;;;7.49;45.57
46642;BME280;32370;41.864;-88.124;2023-04-10T06:46:15;99997.19;;;7.46;45.59
46642;BME280;32370;41.864;-88.124;2023-04-10T06:48:43;99994.94;;;7.57;45.21
46642;BME280;32370;41.864;-88.124;2023-04-10T06:51:11;99993.90;;;7.58;45.11
46642;BME280;32370;41.864;-88.124;2023-04-10T06:53:39;99994.31;;;7.74;44.87
46642;BME280;32370;41.864;-88.124;2023-04-10T06:56:07;99993.47;;;7.54;45.27
46642;BME280;32370;41.864;-88.124;2023-04-10T06:58:35;99993.25;;;7.20;46.32
46642;BME280;32370;41.864;-88.124;2023-04-10T07:10:00;100002.74;;;8.19;46.43
46642;BME280;32370;41.864;-88.124;2023-04-10T07:12:28;99999.43;;;5.88;46.11
46642;BME280;32370;41.864;-88.124;2023-04-10T07:14:55;100001.49;;;7.11;45.97
46642;BME280;32370;41.864;-88.124;2023-04-10T07:17:23;100001.17;;;6.85;46.44
46642;BME280;32370;41.864;-88.124;2023-04-10T07:19:51;100002.09;;;6.68;47.42
46642;BME280;32370;41.864;-88.124;2023-04-10T07:22:19;100003.39;;;6.40;48.95
46642;BME280;32370;41.864;-88.124;2023-04-10T07:24:47;100004.42;;;6.34;49.02
46642;BME280;32370;41.864;-88.124;2023-04-10T07:27:15;100003.06;;;6.54;48.00
46642;BME280;32370;41.864;-88.124;2023-04-10T07:29:43;99998.43;;;6.14;49.01
46642;BME280;32370;41.864;-88.124;2023-04-10T07:32:11;99994.13;;;6.12;49.49
46642;BME280;32370;41.864;-88.124;2023-04-10T07:34:39;99991.51;;;6.51;49.41
46642;BME280;32370;41.864;-88.124;2023-04-10T07:37:07;99986.41;;;6.23;49.30
46642;BME280;32370;41.864;-88.124;2023-04-10T07:39:35;99983.62;;;6.37;49.74
46642;BME280;32370;41.864;-88.124;2023-04-10T07:42:03;99980.19;;;6.01;49.52
46642;BME280;32370;41.864;-88.124;2023-04-10T07:44:31;99982.13;;;5.91;49.13
46642;BME280;32370;41.864;-88.124;2023-04-10T07:46:59;99985.02;;;6.29;49.05
46642;BME280;32370;41.864;-88.124;2023-04-10T07:49:27;99986.11;;;6.32;49.26
46642;BME280;32370;41.864;-88.124;2023-04-10T07:51:54;99986.27;;;6.04;48.94
46642;BME280;32370;41.864;-88.124;2023-04-10T07:54:22;99991.98;;;6.09;48.37
46642;BME280;32370;41.864;-88.124;2023-04-10T07:56:51;99997.47;;;6.10;48.27
46642;BME280;32370;41.864;-88.124;2023-04-10T07:59:19;99996.09;;;6.21;50.15
46642;BME280;32370;41.864;-88.124;2023-04-10T08:01:47;99995.93;;;6.25;49.69
46642;BME280;32370;41.864;-88.124;2023-04-10T08:04:15;99996.21;;;6.30;48.90
46642;BME280;32370;41.864;-88.124;2023-04-10T08:07:15;99995.30;;;6.85;48.69
46642;BME280;32370;41.864;-88.124;2023-04-10T08:09:43;99995.93;;;6.23;49.31
46642;BME280;32370;41.864;-88.124;2023-04-10T08:12:12;99994.53;;;6.28;49.18
46642;BME280;32370;41.864;-88.124;2023-04-10T08:14:40;99994.05;;;6.08;49.29
46642;BME280;32370;41.864;-88.124;2023-04-10T08:17:08;99994.70;;;6.39;50.01
46642;BME280;32370;41.864;-88.124;2023-04-10T08:19:36;99990.64;;;5.82;52.22
46642;BME280;32370;41.864;-88.124;2023-04-10T08:22:04;99991.57;;;5.63;52.66
46642;BME280;32370;41.864;-88.124;2023-04-10T08:24:32;99991.37;;;5.74;52.70
46642;BME280;32370;41.864;-88.124;2023-04-10T08:27:00;99989.69;;;6.04;53.42
46642;BME280;32370;41.864;-88.124;2023-04-10T08:29:28;99991.41;;;5.31;54.53
46642;BME280;32370;41.864;-88.124;2023-04-10T08:31:56;99993.26;;;5.19;54.78
46642;BME280;32370;41.864;-88.124;2023-04-10T08:34:24;99996.08;;;4.78;55.62
46642;BME280;32370;41.864;-88.124;2023-04-10T08:36:53;99997.27;;;4.91;56.55
46642;BME280;32370;41.864;-88.124;2023-04-10T08:39:21;99997.31;;;4.97;56.77
46642;BME280;32370;41.864;-88.124;2023-04-10T08:41:49;99995.25;;;4.64;57.15
46642;BME280;32370;41.864;-88.124;2023-04-10T08:44:17;99992.11;;;4.86;56.81
46642;BME280;32370;41.864;-88.124;2023-04-10T08:46:45;99991.81;;;5.06;56.62
46642;BME280;32370;41.864;-88.124;2023-04-10T08:49:21;99990.37;;;4.31;56.95
46642;BME280;32370;41.864;-88.124;2023-04-10T08:51:54;99988.77;;;4.37;57.72
46642;BME280;32370;41.864;-88.124;2023-04-10T08:54:26;99987.32;;;4.39;59.38
46642;BME280;32370;41.864;-88.124;2023-04-10T08:56:55;99985.61;;;4.25;60.07
46642;BME280;32370;41.864;-88.124;2023-04-10T08:59:23;99987.95;;;4.36;60.01
46642;BME280;32370;41.864;-88.124;2023-04-10T09:01:51;99987.61;;;4.17;61.02
46642;BME280;32370;41.864;-88.124;2023-04-10T09:04:19;99987.76;;;4.28;60.66
46642;BME280;32370;41.864;-88.124;2023-04-10T09:06:48;99989.95;;;4.08;61.11
46642;BME280;32370;41.864;-88.124;2023-04-10T09:13:37;99994.82;;;5.02;60.67
46642;BME280;32370;41.864;-88.124;2023-04-10T09:16:06;99993.01;;;4.12;60.53
46642;BME280;32370;41.864;-88.124;2023-04-10T09:18:44;99995.51;;;4.21;60.02
46642;BME280;32370;41.864;-88.124;2023-04-10T09:21:15;99994.89;;;3.81;60.77
46642;BME280;32370;41.864;-88.124;2023-04-10T09:23:44;99993.74;;;4.45;60.09
46642;BME280;32370;41.864;-88.124;2023-04-10T09:26:29;99996.40;;;4.56;59.25
46642;BME280;32370;41.864;-88.124;2023-04-10T09:28:58;99997.69;;;4.00;60.49
46642;BME280;32370;41.864;-88.124;2023-04-10T09:31:32;100001.16;;;3.82;62.56
46642;BME280;32370;41.864;-88.124;2023-04-10T09:34:11;100000.32;;;3.50;62.59
46642;BME280;32370;41.864;-88.124;2023-04-10T09:36:39;100004.33;;;4.00;61.64
46642;BME280;32370;41.864;-88.124;2023-04-10T09:39:08;100003.12;;;3.60;61.14
46642;BME280;32370;41.864;-88.124;2023-04-10T09:41:47;100004.98;;;3.99;61.12
46642;BME280;32370;41.864;-88.124;2023-04-10T09:44:17;100003.45;;;3.82;60.85
46642;BME280;32370;41.864;-88.124;2023-04-10T09:46:45;100000.43;;;4.20;60.08
46642;BME280;32370;41.864;-88.124;2023-04-10T09:49:13;100004.39;;;3.64;61.37
46642;BME280;32370;41.864;-88.124;2023-04-10T09:51:41;100004.92;;;3.79;61.43
46642;BME280;32370;41.864;-88.124;2023-04-10T09:54:09;100000.92;;;3.79;61.60
46642;BME280;32370;41.864;-88.124;2023-04-10T09:56:38;100003.90;;;3.60;62.49
46642;BME280;32370;41.864;-88.124;2023-04-10T09:59:06;100006.69;;;3.52;63.03
46642;BME280;32370;41.864;-88.124;2023-04-10T10:01:37;100005.98;;;3.29;63.30
46642;BME280;32370;41.864;-88.124;2023-04-10T10:04:07;100006.66;;;3.48;63.24
46642;BME280;32370;41.864;-88.124;2023-04-10T10:06:37;100007.26;;;3.42;64.11
46642;BME280;32370;41.864;-88.124;2023-04-10T10:09:05;100007.83;;;3.40;64.00
46642;BME280;32370;41.864;-88.124;2023-04-10T10:11:34;100008.69;;;3.40;63.94
46642;BME280;32370;41.864;-88.124;2023-04-10T10:14:06;100010.87;;;3.29;65.53
46642;BME280;32370;41.864;-88.124;2023-04-10T10:16:41;100016.17;;;3.01;65.94
46642;BME280;32370;41.864;-88.124;2023-04-10T10:19:15;100018.96;;;2.89;64.96
46642;BME280;32370;41.864;-88.124;2023-04-10T10:21:45;100018.96;;;2.57;66.28
46642;BME280;32370;41.864;-88.124;2023-04-10T10:24:13;100018.28;;;3.34;65.56
46642;BME280;32370;41.864;-88.124;2023-04-10T10:26:42;100026.38;;;3.17;64.70
46642;BME280;32370;41.864;-88.124;2023-04-10T10:29:11;100031.08;;;3.16;64.62
46642;BME280;32370;41.864;-88.124;2023-04-10T10:31:42;100030.98;;;2.96;64.16
46642;BME280;32370;41.864;-88.124;2023-04-10T10:34:10;100031.43;;;2.87;64.52
46642;BME280;32370;41.864;-88.124;2023-04-10T10:36:38;100036.02;;;2.91;64.28
46642;BME280;32370;41.864;-88.124;2023-04-10T10:39:20;100037.51;;;3.16;64.67
46642;BME280;32370;41.864;-88.124;2023-04-10T10:41:57;100040.13;;;2.98;64.26
46642;BME280;32370;41.864;-88.124;2023-04-10T10:44:33;100041.32;;;2.92;64.60
46642;BME280;32370;41.864;-88.124;2023-04-10T10:47:09;100042.32;;;3.38;64.78
46642;BME280;32370;41.864;-88.124;2023-04-10T10:49:57;100043.98;;;3.04;63.85
46642;BME280;32370;41.864;-88.124;2023-04-10T10:52:43;100042.60;;;2.90;64.11
46642;BME280;32370;41.864;-88.124;2023-04-10T10:55:43;100045.07;;;3.76;65.03
46642;BME280;32370;41.864;-88.124;2023-04-10T10:58:11;100049.46;;;2.59;66.22
46642;BME280;32370;41.864;-88.124;2023-04-10T11:01:11;100056.14;;;3.29;66.42
46642;BME280;32370;41.864;-88.124;2023-04-10T11:03:39;100057.42;;;3.05;65.95
46642;BME280;32370;41.864;-88.124;2023-04-10T11:06:08;100053.93;;;2.68;65.57
46642;BME280;32370;41.864;-88.124;2023-04-10T11:08:40;100058.05;;;2.97;65.12
46642;BME280;32370;41.864;-88.124;2023-04-10T11:11:08;100058.77;;;2.81;64.86
46642;BME280;32370;41.864;-88.124;2023-04-10T11:13:39;100065.07;;;2.54;65.98
46642;BME280;32370;41.864;-88.124;2023-04-10T11:16:09;100065.37;;;2.65;66.55
46642;BME280;32370;41.864;-88.124;2023-04-10T11:19:10;100064.72;;;3.17;68.37
46642;BME280;32370;41.864;-88.124;2023-04-10T11:22:28;100068.31;;;2.76;67.11
46642;BME280;32370;41.864;-88.124;2023-04-10T11:24:58;100066.63;;;2.54;67.12
46642;BME280;32370;41.864;-88.124;2023-04-10T11:27:44;100071.31;;;2.88;66.89
46642;BME280;32370;41.864;-88.124;2023-04-10T11:30:30;100072.19;;;2.85;67.19
46642;BME280;32370;41.864;-88.124;2023-04-10T11:33:00;100073.41;;;2.56;67.64
46642;BME280;32370;41.864;-88.124;2023-04-10T11:35:29;100078.79;;;2.76;68.35
46642;BME280;32370;41.864;-88.124;2023-04-10T11:38:16;100076.05;;;3.19;67.55
46642;BME280;32370;41.864;-88.124;2023-04-10T11:41:01;100071.99;;;3.31;66.59
46642;BME280;32370;41.864;-88.124;2023-04-10T11:43:30;100073.53;;;3.34;66.40
46642;BME280;32370;41.864;-88.124;2023-04-10T11:46:01;100075.81;;;3.57;66.43
46642;BME280;32370;41.864;-88.124;2023-04-10T11:48:29;100076.14;;;3.14;66.62
46642;BME280;32370;41.864;-88.124;2023-04-10T11:50:58;100077.80;;;3.07;67.77
46642;BME280;32370;41.864;-88.124;2023-04-10T11:53:26;100077.95;;;3.33;67.20
46642;BME280;32370;41.864;-88.124;2023-04-10T11:55:54;100077.64;;;3.77;66.45
46642;BME280;32370;41.864;-88.124;2023-04-10T11:58:23;100081.40;;;3.76;64.53
46642;BME280;32370;41.864;-88.124;2023-04-10T12:01:00;100084.56;;;4.15;63.57
46642;BME280;32370;41.864;-88.124;2023-04-10T12:03:34;100087.51;;;4.59;62.55
46642;BME280;32370;41.864;-88.124;2023-04-10T12:06:04;100085.11;;;4.71;60.61
46642;BME280;32370;41.864;-88.124;2023-04-10T12:08:34;100090.01;;;5.07;59.04
46642;BME280;32370;41.864;-88.124;2023-04-10T12:11:03;100089.80;;;5.36;58.28
46642;BME280;32370;41.864;-88.124;2023-04-10T12:13:31;100091.61;;;5.47;57.67
46642;BME280;32370;41.864;-88.124;2023-04-10T12:16:00;100093.25;;;5.83;57.06
46642;BME280;32370;41.864;-88.124;2023-04-10T12:18:30;100093.74;;;6.10;56.18
46642;BME280;32370;41.864;-88.124;2023-04-10T12:20:59;100095.20;;;6.35;55.64
46642;BME280;32370;41.864;-88.124;2023-04-10T12:23:29;100091.87;;;6.38;56.17
46642;BME280;32370;41.864;-88.124;2023-04-10T12:26:14;100095.31;;;6.66;54.96
46642;BME280;32370;41.864;-88.124;2023-04-10T12:28:50;100097.65;;;7.02;53.37
46642;BME280;32370;41.864;-88.124;2023-04-10T12:31:26;100100.89;;;7.41;52.94
46642;BME280;32370;41.864;-88.124;2023-04-10T12:33:54;100096.77;;;7.86;53.03
46642;BME280;32370;41.864;-88.124;2023-04-10T12:36:22;100100.00;;;8.03;51.98
46642;BME280;32370;41.864;-88.124;2023-04-10T12:38:50;100099.35;;;8.63;52.08
46642;BME280;32370;41.864;-88.124;2023-04-10T12:41:22;100099.40;;;8.66;51.45
46642;BME280;32370;41.864;-88.124;2023-04-10T12:43:51;100103.24;;;8.77;49.59
46642;BME280;32370;41.864;-88.124;2023-04-10T12:46:24;100100.69;;;9.21;49.12
46642;BME280;32370;41.864;-88.124;2023-04-10T12:48:52;100103.11;;;9.67;47.55
46642;BME280;32370;41.864;-88.124;2023-04-10T12:51:40;100107.27;;;9.88;46.39
46642;BME280;32370;41.864;-88.124;2023-04-10T12:54:08;100106.22;;;9.61;45.55
46642;BME280;32370;41.864;-88.124;2023-04-10T12:56:43;100105.48;;;10.04;45.74
46642;BME280;32370;41.864;-88.124;2023-04-10T12:59:12;100109.96;;;10.36;45.80
46642;BME280;32370;41.864;-88.124;2023-04-10T13:01:40;100113.90;;;10.73;44.01
46642;BME280;32370;41.864;-88.124;2023-04-10T13:04:07;100114.27;;;10.82;43.47
46642;BME280;32370;41.864;-88.124;2023-04-10T13:06:42;100115.40;;;11.25;42.37
46642;BME280;32370;41.864;-88.124;2023-04-10T13:09:11;100115.53;;;11.21;42.59
46642;BME280;32370;41.864;-88.124;2023-04-10T13:11:39;100113.51;;;11.27;42.34